Time;durP1;ratioP1;P1;durP2;ratioP2;P2;SDS_P1;SDS_P2;PMS_P1;PMS_P2;Temp;Humidity;BMP_temperature;BMP_pressure;BME280_temperature;BME280_humidity;BME280_pressure;Samples;Min_cycle;Max_cycle;Signal;HPM_P1;HPM_P2
2022/03/04 22:11:40;;;;;;;40.30;21.40;;;;;;;-1.92;72.74;100566.11;1399463;86;22595;-90
2022/03/04 22:16:43;;;;;;;42.13;21.42;;;;;;;-1.90;72.94;100573.81;1342344;89;21738;-87
2022/03/04 22:19:10;;;;;;;44.20;23.12;;;;;;;-1.91;73.16;100565.19;1338419;92;21354;-93
2022/03/04 22:21:38;;;;;;;41.37;21.97;;;;;;;-1.90;72.77;100569.48;1324307;94;21376;-93
2022/03/04 22:24:12;;;;;;;53.63;25.52;;;;;;;-1.90;72.82;100564.30;1338480;92;21348;-93
2022/03/04 22:26:39;;;;;;;37.42;19.87;;;;;;;-1.91;72.71;100566.48;1339115;92;21399;-94
2022/03/04 22:29:07;;;;;;;48.25;22.42;;;;;;;-1.93;73.69;100575.23;1338896;92;21502;-94
2022/03/04 22:31:35;;;;;;;37.67;20.40;;;;;;;-1.93;73.32;100567.45;1337457;92;21341;-92
2022/03/04 22:34:02;;;;;;;41.58;21.75;;;;;;;-1.93;73.22;100573.94;1334323;93;22256;-92
2022/03/04 22:36:29;;;;;;;45.05;21.73;;;;;;;-1.97;73.71;100571.94;1335093;92;21244;-93
2022/03/04 22:38:57;;;;;;;48.23;23.32;;;;;;;-1.92;73.20;100570.45;1338701;92;21377;-93
2022/03/04 22:41:24;;;;;;;45.73;21.95;;;;;;;-1.93;73.09;100568.29;1338416;92;21370;-92
2022/03/04 22:43:53;;;;;;;42.05;21.90;;;;;;;-1.93;73.47;100570.89;1342179;93;21266;-92
2022/03/04 22:46:27;;;;;;;44.35;24.87;;;;;;;-1.94;73.28;100571.80;1338840;92;21302;-92
2022/03/04 22:48:54;;;;;;;35.85;20.57;;;;;;;-1.93;72.84;100567.45;1338359;92;21361;-91
2022/03/04 22:51:21;;;;;;;41.73;19.85;;;;;;;-1.94;73.21;100571.80;1338075;92;21347;-92
2022/03/04 22:53:48;;;;;;;39.30;22.17;;;;;;;-1.97;73.64;100572.39;1337292;92;21288;-91
2022/03/04 22:56:15;;;;;;;42.98;21.82;;;;;;;-1.96;73.44;100574.07;1337532;92;21494;-90
2022/03/04 22:58:44;;;;;;;43.73;22.27;;;;;;;-1.97;73.58;100575.83;1337954;92;21429;-91
2022/03/04 23:01:25;;;;;;;41.45;22.10;;;;;;;-1.97;73.12;100577.13;1338348;92;22366;-91
2022/03/04 23:09:30;;;;;;;41.80;21.30;;;;;;;-2.00;73.79;100579.84;1330666;92;22183;-92
2022/03/04 23:11:58;;;;;;;44.42;23.55;;;;;;;-2.01;73.80;100579.89;1336605;92;21310;-93
2022/03/04 23:14:27;;;;;;;38.30;19.20;;;;;;;-2.06;73.89;100574.46;1339544;92;21317;-92
2022/03/04 23:16:57;;;;;;;34.83;18.42;;;;;;;-2.06;74.34;100567.98;1389186;86;21804;31
2022/03/04 23:19:26;;;;;;;40.83;20.45;;;;;;;-2.07;74.50;100570.66;1379952;86;21642;-93
2022/03/04 23:21:53;;;;;;;40.50;22.15;;;;;;;-2.07;74.68;100574.55;1354758;91;21273;-93
2022/03/04 23:24:22;;;;;;;45.38;21.95;;;;;;;-2.04;74.43;100571.81;1354744;91;22832;-94
2022/03/04 23:26:57;;;;;;;42.05;23.57;;;;;;;-2.03;74.52;100569.61;1354751;90;21214;-92
2022/03/04 23:29:26;;;;;;;34.35;19.12;;;;;;;-2.02;74.32;100568.69;1341626;90;21614;-91
2022/03/04 23:31:57;;;;;;;31.37;15.60;;;;;;;-2.04;74.46;100565.34;1337201;93;21274;-88
2022/03/04 23:34:24;;;;;;;;;;;;;;;-2.07;74.70;100568.05;1337895;93;21494;-89
2022/03/04 23:36:51;;;;;;;50.10;24.15;;;;;;;-2.06;74.46;100566.68;1336264;93;20395;-92
2022/03/04 23:41:50;;;;;;;36.10;19.90;;;;;;;-1.99;73.96;100570.31;1338162;93;21679;-95
2022/03/04 23:44:19;;;;;;;44.55;23.25;;;;;;;-2.00;74.01;100569.93;1332443;93;21126;-92
2022/03/04 23:46:47;;;;;;;47.58;22.00;;;;;;;-1.98;73.70;100573.31;1330847;93;21310;-92
2022/03/04 23:49:14;;;;;;;44.03;20.85;;;;;;;-1.99;73.79;100573.74;1330071;92;22264;-85
2022/03/04 23:51:42;;;;;;;36.20;19.75;;;;;;;-1.99;73.85;100572.45;1331508;92;21348;-92
2022/03/04 23:54:09;;;;;;;38.95;18.75;;;;;;;-2.01;74.27;100576.88;1330160;93;21363;-91
2022/03/04 23:56:41;;;;;;;39.13;20.55;;;;;;;-1.99;74.05;100576.80;1328876;93;21303;-88
2022/03/04 23:59:11;;;;;;;37.53;21.87;;;;;;;-1.98;74.41;100572.85;1323220;93;22884;-88
